Overbrook, New Jersey
Current Conditions -  °F | °C
As of 4:53 AM on Sunday 25 Jan 2015 (Local Time) from KCDW Reporting Station
Broken Clouds Broken Clouds  
Wind Chill: 33°   Ceiling: 7000
Heat Index: 33°   Visibility: 10mi
Dew Point: 24°   Wind: 3mph
Humidity: 70%   Direction: 240°WSW
Pressure: 29.59"   Gusts: NA
Location:  40.8566°N, 74.2292°W
Report Text: KCDW 250953Z AUTO 24003KT 10SM BKN070 01/M04 A2959 RMK AO2 SLP028 T00061044 TSNO $
Loading
Personal Weather Stations






























Interactive Weather Map New forecast layout! Learn more

10-Day Weather Forecast

Advertisements
Track Severe Weather on mobile